Bookmark and Share
Track history (hours):
 

Kristin D

Last reported at 2014-Apr-16 15:33 UTC. Time now 2014-Apr-16 16:00 UTC.
Position N 55°12' E 012°38'.

Length 90 m; draft 4.3 m.

Type: Cargo ship. MMSI: 311003700.

NotesDate/timePositionNaut miles runAvg speedWind from/ knotsBaromVisibWave heightAir tempDewpointWater temp
2014-Apr-16 15:33N 55°12' E 012°38'1010.5
2014-Apr-16 14:33N 55°23' E 012°39'1110.5
2014-Apr-16 13:33N 55°33' E 012°42'8 7.7
2014-Apr-16 12:32N 55°41' E 012°39'0 0.0
2014-Apr-16 11:32N 55°41' E 012°39'0 0.0
2014-Apr-16 10:32N 55°41' E 012°39'0 0.0
2014-Apr-16 09:32N 55°41' E 012°39'0 0.0
2014-Apr-16 08:32N 55°41' E 012°39'0 0.0
2014-Apr-16 07:32N 55°41' E 012°39'0 0.0
2014-Apr-16 06:32N 55°41' E 012°39'0 0.0
2014-Apr-16 05:32N 55°41' E 012°39'0 0.0
2014-Apr-16 04:32N 55°41' E 012°39'0 0.0
2014-Apr-16 03:32N 55°41' E 012°39'0 0.0
2014-Apr-16 02:32N 55°41' E 012°39'0 0.0
2014-Apr-16 01:32N 55°41' E 012°39'0 0.0
2014-Apr-16 00:32N 55°41' E 012°39'0 0.0
2014-Apr-15 23:32N 55°41' E 012°39'0 0.0
2014-Apr-15 22:31N 55°41' E 012°39'0 0.0
2014-Apr-15 21:31N 55°41' E 012°39'1 0.8
2014-Apr-15 20:33N 55°40' E 012°40'1010.5
2014-Apr-15 19:33N 55°30' E 012°43'1212.4
2014-Apr-15 18:33N 55°18' E 012°40'3311.0
2014-Apr-15 15:32N 54°45' E 012°25'1111.2
2014-Apr-15 14:33N 54°35' E 012°18'12 5.9
2014-Apr-15 12:30N 54°25' E 012°08'1212.4
2014-Apr-15 11:34N 54°25' E 011°48'1212.2
2014-Apr-15 10:34N 54°30' E 011°29'6 0.4
2014-Apr-14 21:34N 54°35' E 011°23'10 9.9
2014-Apr-14 20:34N 54°29' E 011°37'1010.1
2014-Apr-14 19:33N 54°27' E 011°54'10 9.7
2014-Apr-14 18:34N 54°29' E 012°10'1111.3
2014-Apr-14 17:33N 54°39' E 012°18'1211.5
2014-Apr-14 16:33N 54°49' E 012°29'2311.2
2014-Apr-14 14:32N 55°11' E 012°37'1111.2
2014-Apr-14 13:34N 55°22' E 012°39'2210.8
2014-Apr-14 11:34N 55°44' E 012°39'3 3.0
2014-Apr-14 10:33N 55°41' E 012°38'0 0.0
2014-Apr-14 09:33N 55°41' E 012°38'0 0.0
2014-Apr-14 08:33N 55°41' E 012°38'0 0.0
2014-Apr-14 07:33N 55°41' E 012°38'0 0.0
2014-Apr-14 06:33N 55°41' E 012°38'0 0.0
2014-Apr-14 05:33N 55°41' E 012°38'4 0.6
2014-Apr-13 22:33N 55°45' E 012°40'1 1.4
2014-Apr-13 21:33N 55°44' E 012°41'7 6.8
2014-Apr-13 20:33N 55°37' E 012°42'7 7.4
2014-Apr-13 19:33N 55°29' E 012°43'8 7.8
2014-Apr-13 18:33N 55°22' E 012°41'1111.1
2014-Apr-13 17:33N 55°11' E 012°40'2611.2
2014-Apr-13 15:11N 54°45' E 012°25'711.6
2014-Apr-13 14:33N 54°39' E 012°20'1211.8
2014-Apr-13 13:33N 54°28' E 012°14'1211.5
2014-Apr-13 12:33N 54°25' E 011°55'1212.2
2014-Apr-13 11:33N 54°28' E 011°35'1211.7
2014-Apr-13 10:33N 54°37' E 011°21'3 0.2
2014-Apr-12 22:33N 54°39' E 011°21'8 8.4
2014-Apr-12 21:33N 54°32' E 011°28'1211.7
2014-Apr-12 20:33N 54°28' E 011°47'1110.8
2014-Apr-12 19:33N 54°27' E 012°06'1111.1
2014-Apr-12 18:33N 54°36' E 012°15'1211.9
2014-Apr-12 17:33N 54°46' E 012°26'2311.1
2014-Apr-12 15:32N 55°08' E 012°38'1111.5
2014-Apr-12 14:33N 55°19' E 012°38'1111.2
2014-Apr-12 13:33N 55°30' E 012°41'1111.0
2014-Apr-12 12:33N 55°41' E 012°41'2 1.7
2014-Apr-12 11:31N 55°41' E 012°38'0 0.0
2014-Apr-12 10:31N 55°41' E 012°38'0 0.0
2014-Apr-12 09:31N 55°41' E 012°38'0 0.0
2014-Apr-12 08:31N 55°41' E 012°38'0 0.0
2014-Apr-12 07:31N 55°41' E 012°38'0 0.0
2014-Apr-12 06:31N 55°41' E 012°38'0 0.0
2014-Apr-12 05:31N 55°41' E 012°38'0 0.0
2014-Apr-12 04:31N 55°41' E 012°38'0 0.0
2014-Apr-12 03:31N 55°41' E 012°38'0 0.0
2014-Apr-12 02:31N 55°41' E 012°38'0 0.0
2014-Apr-12 01:31N 55°41' E 012°38'3 3.3
2014-Apr-12 00:33N 55°38' E 012°42'9 8.9
2014-Apr-11 23:33N 55°29' E 012°43'9 9.1
2014-Apr-11 22:33N 55°20' E 012°41'1110.6
2014-Apr-11 21:33N 55°10' E 012°40'27 5.4
2014-Apr-11 16:33N 54°44' E 012°24'1110.2
2014-Apr-11 15:28N 54°34' E 012°18'910.3
2014-Apr-11 14:34N 54°25' E 012°11'1010.5
2014-Apr-11 13:34N 54°25' E 011°53'1211.9
2014-Apr-11 12:34N 54°29' E 011°33'1111.4
2014-Apr-11 11:33N 54°37' E 011°20'2 0.2
2014-Apr-11 03:33N 54°39' E 011°20'8 8.1
2014-Apr-11 02:33N 54°32' E 011°28'8 8.0
2014-Apr-11 01:33N 54°29' E 011°40'8 8.4
2014-Apr-11 00:33N 54°27' E 011°54'8 8.5
2014-Apr-10 23:33N 54°28' E 012°09'10 9.6
2014-Apr-10 22:33N 54°37' E 012°15'10 9.7
2014-Apr-10 21:33N 54°45' E 012°24'2010.0
2014-Apr-10 19:33N 55°03' E 012°39'1010.5
2014-Apr-10 18:33N 55°13' E 012°38'1110.7
2014-Apr-10 17:33N 55°24' E 012°39'1010.5
2014-Apr-10 16:33N 55°34' E 012°42'10 9.7
2014-Apr-10 15:33N 55°44' E 012°40'3 3.3
2014-Apr-10 14:32N 55°41' E 012°38'0 0.0
2014-Apr-10 13:32N 55°41' E 012°38'0 0.0
2014-Apr-10 12:32N 55°41' E 012°38'0 0.0
2014-Apr-10 11:32N 55°41' E 012°38'0 0.0
2014-Apr-10 10:32N 55°41' E 012°38'0 0.0
2014-Apr-10 09:32N 55°41' E 012°38'0 0.0
2014-Apr-10 08:32N 55°41' E 012°38'0 0.0
2014-Apr-10 07:32N 55°41' E 012°38'0 0.0
2014-Apr-10 06:32N 55°41' E 012°38'0 0.0
2014-Apr-10 05:32N 55°41' E 012°38'0 0.0
2014-Apr-10 04:32N 55°41' E 012°38'3 3.3
2014-Apr-10 03:33N 55°44' E 012°39'8 8.0
2014-Apr-10 02:33N 55°52' E 012°39'7 7.1
2014-Apr-10 01:33N 55°59' E 012°38'9 8.5
2014-Apr-10 00:33N 56°07' E 012°31'1010.0
2014-Apr-09 23:33N 56°11' E 012°15'104 8.6
2014-Apr-09 11:26N 55°11' E 009°45'910.2
2014-Apr-09 10:33N 55°04' E 009°35'5 1.2
2014-Apr-09 06:12N 55°03' E 009°26'92 6.2
2014-Apr-08 15:15N 56°16' E 011°04'5110.0
2014-Apr-08 10:12N 57°06' E 010°47'19 9.6
2014-Apr-08 08:11N 57°25' E 010°43'610.0
2014-Apr-08 07:33N 57°32' E 010°44'10 9.7
2014-Apr-08 06:33N 57°41' E 010°45'7 7.0
2014-Apr-08 05:33N 57°47' E 010°39'1110.5
2014-Apr-08 04:32N 57°48' E 010°19'12310.9
2014-Apr-07 17:20N 58°03' E 006°30'911.4
2014-Apr-07 16:33N 58°09' E 006°18'1111.3
2014-Apr-07 15:33N 58°17' E 006°01'1010.4
2014-Apr-07 14:33N 58°24' E 005°47'1110.2
2014-Apr-07 13:31N 58°33' E 005°35'1010.3
2014-Apr-07 12:31N 58°42' E 005°27'8 8.8
2014-Apr-07 11:33N 58°51' E 005°28'1010.1
2014-Apr-07 10:33N 59°00' E 005°33'7 7.4
2014-Apr-07 09:34N 58°58' E 005°47'3 3.2
2014-Apr-07 08:33N 58°55' E 005°44'0 0.0
2014-Apr-07 07:33N 58°55' E 005°44'0 0.0
2014-Apr-07 06:33N 58°55' E 005°44'0 0.0
2014-Apr-07 05:33N 58°55' E 005°44'7 6.8
2014-Apr-07 04:33N 59°02' E 005°45'8 7.6
2014-Apr-07 03:33N 58°58' E 005°33'9 9.3
2014-Apr-07 02:33N 58°50' E 005°24'7 7.2
2014-Apr-07 01:33N 58°47' E 005°12'  

Dump ship's entire track history

sailing weather and tide predictions

Kristin D — C6XA6 — position and weather